Time;durP1;ratioP1;P1;durP2;ratioP2;P2;SDS_P1;SDS_P2;PMS_P1;PMS_P2;Temp;Humidity;BMP_temperature;BMP_pressure;BME280_temperature;BME280_humidity;BME280_pressure;Samples;Min_cycle;Max_cycle;Signal;HPM_P1;HPM_P2
2022/02/10 00:05:55;;;;;;;35.25;20.40;;;;;;;7.60;100.00;102051.19;5142420;27;20058;-48
2022/02/10 00:17:01;;;;;;;34.53;20.73;;;;;;;7.67;100.00;102054.47;5154113;27;20508;-53
2022/02/10 00:22:21;;;;;;;32.72;19.95;;;;;;;7.67;100.00;102040.53;5148247;27;20471;-55
2022/02/10 00:36:01;;;;;;;36.92;21.25;;;;;;;7.58;100.00;102024.22;5153168;27;20050;-56
2022/02/10 00:38:33;;;;;;;35.83;19.33;;;;;;;7.63;100.00;102017.97;5133925;27;20047;-56
2022/02/10 00:41:01;;;;;;;33.78;20.10;;;;;;;7.55;100.00;102013.84;5133910;27;20051;-56
2022/02/10 00:43:29;;;;;;;35.97;20.35;;;;;;;7.57;100.00;102014.66;5114668;27;20039;-54
2022/02/10 00:45:57;;;;;;;36.28;20.02;;;;;;;7.59;100.00;102015.47;5129966;27;20088;-47
2022/02/10 00:48:25;;;;;;;34.92;19.92;;;;;;;7.56;100.00;102007.69;5144098;27;20046;-46
2022/02/10 00:50:55;;;;;;;33.92;19.55;;;;;;;7.65;100.00;101997.81;5152078;27;20065;-48
2022/02/10 00:53:26;;;;;;;30.35;18.13;;;;;;;7.64;100.00;101991.72;5150738;27;20062;-46
2022/02/10 00:55:55;;;;;;;29.52;17.65;;;;;;;7.65;100.00;101992.56;5152536;27;20499;-49
2022/02/10 00:58:25;;;;;;;29.42;17.13;;;;;;;7.60;100.00;101988.34;5135317;27;20051;-46
2022/02/10 01:31:28;;;;;;;25.77;14.63;;;;;;;7.66;100.00;101971.56;5153609;27;20046;-48
2022/02/10 01:33:56;;;;;;;22.77;13.30;;;;;;;7.66;100.00;101971.56;5153525;27;20533;-46
2022/02/10 01:36:24;;;;;;;22.17;13.40;;;;;;;7.66;100.00;101963.72;5152504;27;20102;-49
2022/02/10 01:38:54;;;;;;;21.92;13.73;;;;;;;7.68;100.00;101961.06;5149537;27;20050;-46
2022/02/10 01:58:12;;;;;;;20.55;12.38;;;;;;;7.60;100.00;101941.22;5153557;27;20358;-56
2022/02/10 02:03:27;;;;;;;19.75;11.68;;;;;;;7.57;100.00;101927.41;5153478;27;20370;-49
2022/02/10 02:06:03;;;;;;;18.63;11.35;;;;;;;7.54;100.00;101915.28;5153808;27;20095;-49
2022/02/10 02:08:35;;;;;;;20.40;12.00;;;;;;;7.59;100.00;101912.47;5153529;27;20052;-55
2022/02/10 02:11:05;;;;;;;19.63;11.20;;;;;;;7.60;100.00;101901.94;5153337;27;20047;-51
2022/02/10 02:13:34;;;;;;;19.42;12.57;;;;;;;7.62;100.00;101901.91;5153417;27;20522;-55
2022/02/10 02:16:03;;;;;;;20.08;11.70;;;;;;;7.58;100.00;101895.06;5130475;27;20085;-56
2022/02/10 02:18:32;;;;;;;20.05;11.80;;;;;;;7.60;100.00;101898.50;5151254;27;20543;-56
2022/02/10 02:21:02;;;;;;;18.13;10.20;;;;;;;7.61;100.00;101887.97;5157018;27;20038;-47
2022/02/10 02:23:31;;;;;;;18.33;11.23;;;;;;;7.61;100.00;101882.72;5156907;27;20100;-54
2022/02/10 02:26:05;;;;;;;18.48;11.30;;;;;;;7.63;100.00;101879.22;5157249;27;20051;-56
2022/02/10 02:28:37;;;;;;;18.55;11.38;;;;;;;7.64;100.00;101880.91;5138739;27;20103;-56
2022/02/10 02:31:10;;;;;;;17.93;11.20;;;;;;;7.60;100.00;101880.16;5155364;27;20038;-56
2022/02/10 03:06:49;;;;;;;14.95;9.60;;;;;;;7.63;100.00;101847.78;5155618;27;20054;-56
2022/02/10 03:09:23;;;;;;;16.23;9.27;;;;;;;7.64;100.00;101841.66;5156342;27;20065;-49
2022/02/10 03:11:54;;;;;;;16.25;9.63;;;;;;;7.59;100.00;101840.06;5156462;27;20429;-54
2022/02/10 03:14:27;;;;;;;17.83;10.65;;;;;;;7.62;100.00;101836.44;5137769;27;20057;-55
2022/02/10 03:19:54;;;;;;;15.85;9.20;;;;;;;7.60;100.00;101835.66;5138923;27;20062;-56
2022/02/10 04:15:18;;;;;;;20.88;12.18;;;;;;;7.55;100.00;101806.16;5153390;27;20091;-44
2022/02/10 04:18:11;;;;;;;18.23;11.63;;;;;;;7.54;100.00;101805.31;5151339;27;20034;-45
2022/02/10 04:23:35;;;;;;;20.10;12.73;;;;;;;7.58;100.00;101803.44;5151752;27;20054;-43
2022/02/10 04:26:16;;;;;;;19.98;12.27;;;;;;;7.59;100.00;101800.78;5154948;27;20103;-43
2022/02/10 04:29:03;;;;;;;21.17;13.20;;;;;;;7.56;100.00;101810.50;5155199;27;20083;-45
2022/02/10 04:37:41;;;;;;;20.95;12.75;;;;;;;7.55;100.00;101801.81;5089985;28;20048;-44
2022/02/10 05:08:38;;;;;;;21.98;14.55;;;;;;;7.50;100.00;101787.16;5083741;28;20056;-56
2022/02/10 05:17:09;;;;;;;23.08;13.90;;;;;;;7.47;100.00;101788.13;5088744;28;20169;-54
2022/02/10 05:19:58;;;;;;;23.38;14.20;;;;;;;7.44;100.00;101783.88;5087462;28;20061;-44
2022/02/10 05:33:42;;;;;;;23.95;14.43;;;;;;;7.42;100.00;101777.84;5068092;28;20065;-55
2022/02/10 05:36:13;;;;;;;25.88;15.57;;;;;;;7.35;100.00;101773.75;5068267;28;20060;-56
2022/02/10 05:38:47;;;;;;;27.45;15.82;;;;;;;7.38;100.00;101775.41;5069280;28;20044;-54
2022/02/10 05:41:51;;;;;;;25.42;15.25;;;;;;;7.39;100.00;101767.50;5068173;28;20054;-55
2022/02/10 05:44:49;;;;;;;25.35;14.93;;;;;;;7.39;100.00;101764.88;5062752;28;20052;-56
2022/02/10 05:58:16;;;;;;;24.50;14.95;;;;;;;7.38;100.00;101755.31;5054272;28;20053;-48
2022/02/10 06:01:46;;;;;;;27.88;15.88;;;;;;;7.33;100.00;101754.63;5051034;28;20094;-45
2022/02/10 06:48:57;;;;;;;27.20;17.65;;;;;;;7.23;100.00;101777.66;5023137;28;20053;-56
2022/02/10 06:51:33;;;;;;;27.35;16.70;;;;;;;7.22;100.00;101788.19;5052558;28;20053;-53
2022/02/10 06:54:13;;;;;;;31.38;18.58;;;;;;;7.21;100.00;101789.94;5054135;28;20048;-55
2022/02/10 07:08:14;;;;;;;32.70;19.45;;;;;;;7.18;100.00;101808.34;5052137;28;20052;-49
2022/02/10 07:11:02;;;;;;;37.40;19.67;;;;;;;7.17;100.00;101806.66;5049186;28;20375;-55
2022/02/10 07:16:52;;;;;;;31.95;18.30;;;;;;;7.22;100.00;101806.50;5057739;28;20387;-55
2022/02/10 07:47:34;;;;;;;36.25;21.52;;;;;;;6.90;100.00;101840.72;5051929;28;20479;-54
2022/02/10 07:53:19;;;;;;;18.50;9.88;;;;;;;6.89;100.00;101846.84;5016245;28;20418;-54
2022/02/10 07:56:22;;;;;;;17.77;8.13;;;;;;;6.85;100.00;101853.09;5052527;28;20514;-54
2022/02/10 08:57:44;;;;;;;4.85;2.13;;;;;;;6.53;100.00;101909.00;5048530;28;20045;-46
2022/02/10 09:03:17;;;;;;;7.72;1.38;;;;;;;6.64;100.00;101917.41;5051737;28;20427;-47
2022/02/10 09:06:01;;;;;;;4.57;1.23;;;;;;;6.66;100.00;101922.56;5051559;28;20394;-50
2022/02/10 09:14:41;;;;;;;6.63;1.60;;;;;;;6.49;100.00;101923.97;5036073;28;20500;-47
2022/02/10 09:20:22;;;;;;;4.88;1.13;;;;;;;6.52;100.00;101923.84;5015149;28;20058;-46
2022/02/10 09:49:09;;;;;;;6.25;1.50;;;;;;;6.68;100.00;101954.72;5054915;28;20502;-45
2022/02/10 09:59:36;;;;;;;4.53;1.63;;;;;;;6.66;100.00;101951.34;5054684;28;20053;-44
2022/02/10 10:02:09;;;;;;;5.32;1.45;;;;;;;6.65;100.00;101957.44;5054764;28;20063;-46
2022/02/10 10:04:42;;;;;;;4.85;1.30;;;;;;;6.60;100.00;101968.91;5054747;28;20048;-44
2022/02/10 10:07:28;;;;;;;6.93;1.90;;;;;;;6.54;100.00;101966.47;5054776;28;20506;-45
2022/02/10 10:10:43;;;;;;;4.65;1.70;;;;;;;6.66;100.00;101969.63;5054443;28;20056;-47
2022/02/10 10:16:32;;;;;;;6.95;1.58;;;;;;;6.72;100.00;101972.91;5043648;28;20533;-45
2022/02/10 10:19:10;;;;;;;8.65;1.88;;;;;;;6.80;100.00;101970.03;5054433;28;20053;-45
2022/02/10 10:21:45;;;;;;;5.65;1.50;;;;;;;6.82;100.00;101964.78;5054456;28;20040;-45
2022/02/10 10:24:24;;;;;;;6.82;1.63;;;;;;;6.90;100.00;101966.25;5054276;28;20049;-44
2022/02/10 10:27:24;;;;;;;5.07;1.75;;;;;;;6.91;100.00;101967.97;5054204;28;20041;-43
2022/02/10 10:52:50;;;;;;;7.07;1.33;;;;;;;7.65;100.00;101982.09;5053683;28;20061;-57
2022/02/10 10:55:38;;;;;;;8.93;1.60;;;;;;;7.75;100.00;101980.88;5053516;28;20056;-47
2022/02/10 10:58:14;;;;;;;7.30;1.58;;;;;;;7.81;100.00;101983.28;5053820;28;20479;-46
2022/02/10 11:03:43;;;;;;;7.22;1.83;;;;;;;7.97;100.00;101988.00;5050469;28;20083;-47
2022/02/10 11:36:27;;;;;;;5.72;1.90;;;;;;;9.36;94.18;101975.63;5052951;28;20051;-45
2022/02/10 11:39:31;;;;;;;10.20;2.38;;;;;;;9.23;93.88;101972.66;5048093;28;20527;-55
2022/02/10 11:42:29;;;;;;;8.57;2.53;;;;;;;9.26;98.22;101967.28;5043980;28;20057;-56
2022/02/10 13:48:02;;;;;;;7.47;2.22;;;;;;;9.06;85.22;101949.72;5055246;28;20053;-55
2022/02/10 14:15:28;;;;;;;6.82;1.98;;;;;;;8.51;91.28;101944.06;5018345;28;20067;-56
2022/02/10 14:18:08;;;;;;;7.70;1.90;;;;;;;8.56;90.80;101944.75;5054171;28;20049;-44
2022/02/10 14:20:53;;;;;;;7.10;1.63;;;;;;;8.45;88.30;101940.78;5054346;28;20098;-45
2022/02/10 14:26:22;;;;;;;4.50;1.92;;;;;;;8.44;86.85;101946.06;5055042;28;20055;-48
2022/02/10 14:28:51;;;;;;;7.68;1.52;;;;;;;8.40;86.27;101949.72;5054221;28;20387;-57
2022/02/10 14:31:20;;;;;;;5.93;1.60;;;;;;;8.30;84.88;101951.81;5054232;28;20190;-56
2022/02/10 14:33:49;;;;;;;8.05;1.83;;;;;;;8.29;84.74;101955.38;5053142;28;20061;-45
2022/02/10 14:36:23;;;;;;;9.80;1.85;;;;;;;8.25;83.63;101954.63;5049491;28;20053;-56
2022/02/10 14:39:12;;;;;;;5.93;1.52;;;;;;;8.20;83.67;101961.78;5051659;28;20043;-56
2022/02/10 15:49:03;;;;;;;11.00;1.75;;;;;;;7.72;86.46;101975.75;5065488;28;20089;-55
2022/02/10 15:54:34;;;;;;;7.32;1.52;;;;;;;7.60;85.53;101977.88;5057502;28;20049;-47
2022/02/10 16:11:03;;;;;;;12.50;2.03;;;;;;;7.44;85.40;101974.09;5052443;28;20060;-44
2022/02/10 16:19:06;;;;;;;8.02;1.70;;;;;;;7.33;87.22;101965.75;5043502;28;20065;-57
2022/02/10 16:21:40;;;;;;;7.80;1.83;;;;;;;7.26;87.51;101963.31;5048557;28;20510;-55
2022/02/10 16:24:17;;;;;;;5.30;1.60;;;;;;;7.28;87.99;101958.91;5050023;28;20059;-44
2022/02/10 16:26:55;;;;;;;8.07;1.50;;;;;;;7.25;88.35;101958.13;5052274;28;20041;-56
2022/02/10 16:29:25;;;;;;;9.00;1.70;;;;;;;7.26;89.10;101955.47;5050185;28;20057;-45
2022/02/10 16:31:53;;;;;;;7.20;1.60;;;;;;;7.26;88.88;101963.31;5047693;28;20041;-47
2022/02/10 16:34:27;;;;;;;6.53;1.77;;;;;;;7.21;87.50;101965.25;5052265;28;20061;-44
2022/02/10 16:37:01;;;;;;;6.68;1.50;;;;;;;7.05;88.69;101970.13;5052087;28;20094;-46
2022/02/10 16:39:34;;;;;;;6.93;1.90;;;;;;;7.01;89.77;101978.09;5051875;28;20041;-57
2022/02/10 16:42:13;;;;;;;9.32;1.77;;;;;;;6.97;89.60;101973.88;5051975;28;20052;-48
2022/02/10 16:44:47;;;;;;;9.00;1.85;;;;;;;6.97;90.42;101979.09;5053539;28;20053;-56
2022/02/10 16:47:21;;;;;;;6.20;1.65;;;;;;;6.93;88.98;101984.44;5051918;28;20041;-56
2022/02/10 16:49:55;;;;;;;7.80;1.75;;;;;;;6.90;87.33;101986.31;5052183;28;20060;-55
2022/02/10 16:52:34;;;;;;;5.47;1.58;;;;;;;6.86;85.52;101982.94;5051400;28;20032;-56
2022/02/10 16:55:17;;;;;;;7.18;1.38;;;;;;;6.85;84.93;101978.59;5051001;28;20040;-56
2022/02/10 16:58:03;;;;;;;6.22;1.55;;;;;;;6.71;84.66;101984.25;5051936;28;20514;-55
2022/02/10 17:01:06;;;;;;;6.95;1.70;;;;;;;6.66;84.61;101987.94;5049758;28;20448;-56
2022/02/10 17:03:56;;;;;;;6.38;1.52;;;;;;;6.66;85.95;101985.31;5047763;28;20623;-55
2022/02/10 17:16:02;;;;;;;5.72;1.30;;;;;;;6.60;83.04;101992.44;5051954;28;20048;-46
2022/02/10 17:18:37;;;;;;;11.98;2.35;;;;;;;6.57;81.52;101997.75;5051457;28;20045;-45
2022/02/10 17:21:26;;;;;;;5.43;1.30;;;;;;;6.53;79.81;101995.28;5051477;28;20055;-47
2022/02/10 17:27:01;;;;;;;4.68;1.42;;;;;;;6.42;79.45;101995.59;4977675;28;20058;-56
2022/02/10 17:29:41;;;;;;;9.32;2.70;;;;;;;6.33;79.35;101998.50;5051598;28;20055;-55
2022/02/10 17:32:19;;;;;;;7.20;2.00;;;;;;;6.35;80.44;101994.06;5051470;28;20056;-44
2022/02/10 17:45:59;;;;;;;9.15;2.88;;;;;;;6.24;80.67;102010.91;5055110;28;20124;-53
2022/02/10 17:51:38;;;;;;;10.52;1.83;;;;;;;6.13;80.94;102010.34;5050135;28;20049;-55
2022/02/10 17:54:07;;;;;;;5.18;1.38;;;;;;;6.22;82.01;102019.69;5054905;28;20431;-43
2022/02/10 17:56:37;;;;;;;4.57;1.35;;;;;;;6.19;81.07;102018.03;5054793;28;20107;-42
2022/02/10 17:59:06;;;;;;;8.52;1.90;;;;;;;6.22;81.76;102012.69;5053213;28;20060;-43
2022/02/10 18:01:34;;;;;;;9.85;2.38;;;;;;;6.16;82.67;102023.34;5051770;28;20547;-43
2022/02/10 18:04:02;;;;;;;5.82;1.67;;;;;;;6.17;82.71;102032.88;5050169;28;20049;-55
2022/02/10 18:06:36;;;;;;;7.70;2.05;;;;;;;6.15;82.90;102025.97;5054321;28;20052;-55
2022/02/10 18:14:51;;;;;;;8.50;1.80;;;;;;;5.98;83.11;102029.06;5054566;28;20710;-44
2022/02/10 18:17:42;;;;;;;6.70;2.00;;;;;;;5.95;83.71;102040.41;5054587;28;20389;-43
2022/02/10 18:20:15;;;;;;;6.97;1.58;;;;;;;5.96;83.39;102030.81;5051409;28;20338;-44
2022/02/10 18:25:46;;;;;;;5.90;1.73;;;;;;;5.83;84.43;102038.13;5052621;28;20049;-56
2022/02/10 19:02:30;;;;;;;5.28;1.50;;;;;;;5.67;88.49;102059.41;5053272;28;20415;-44
2022/02/10 19:07:52;;;;;;;8.45;2.08;;;;;;;5.70;89.43;102053.22;5053886;28;20532;-43
2022/02/10 19:10:25;;;;;;;10.70;1.98;;;;;;;5.64;90.71;102063.84;5053558;28;20506;-45
2022/02/10 19:12:55;;;;;;;9.35;1.77;;;;;;;5.64;90.19;102064.69;5053403;28;20041;-47
2022/02/10 19:15:33;;;;;;;10.77;2.10;;;;;;;5.59;90.42;102059.59;5052605;28;20068;-47
2022/02/10 19:18:04;;;;;;;9.10;2.22;;;;;;;5.62;90.24;102070.81;5049142;28;20047;-44
2022/02/10 19:20:34;;;;;;;12.95;2.05;;;;;;;5.58;90.32;102073.53;5051601;28;20475;-43
2022/02/10 19:23:04;;;;;;;8.52;2.17;;;;;;;5.52;91.06;102070.19;5053261;28;20052;-44
2022/02/10 19:25:33;;;;;;;9.60;2.20;;;;;;;5.51;91.61;102065.91;5053209;28;20056;-44
2022/02/10 19:28:01;;;;;;;7.53;2.33;;;;;;;5.54;90.86;102060.59;5053185;28;20045;-47
2022/02/10 19:30:32;;;;;;;10.98;2.92;;;;;;;5.53;92.01;102058.88;5052890;28;20119;-43
2022/02/10 19:33:04;;;;;;;6.85;2.58;;;;;;;5.52;90.89;102064.97;5052318;28;20061;-44
2022/02/10 19:35:38;;;;;;;9.68;2.72;;;;;;;5.47;90.75;102065.09;5051745;28;20106;-45
2022/02/10 19:38:06;;;;;;;10.75;2.65;;;;;;;5.42;91.26;102070.41;5052974;28;20503;-48
2022/02/10 19:40:38;;;;;;;13.98;2.70;;;;;;;5.41;90.85;102070.47;5053129;28;20059;-47
2022/02/10 19:43:06;;;;;;;9.27;2.20;;;;;;;5.33;91.22;102067.19;5053048;28;20063;-47
2022/02/10 19:45:34;;;;;;;8.70;2.22;;;;;;;5.31;91.38;102064.59;5052766;28;20045;-49
2022/02/10 19:48:04;;;;;;;9.48;2.28;;;;;;;5.29;91.93;102060.31;5048951;28;20449;-48
2022/02/10 19:50:35;;;;;;;11.13;2.08;;;;;;;5.32;91.43;102065.47;5049264;28;20118;-45
2022/02/10 19:53:07;;;;;;;7.70;2.00;;;;;;;5.32;91.39;102065.47;5052666;28;20049;-48
2022/02/10 19:55:39;;;;;;;8.88;2.20;;;;;;;5.30;92.16;102075.09;5052656;28;20450;-49
2022/02/10 19:58:11;;;;;;;12.20;2.30;;;;;;;5.29;92.42;102075.97;5050065;28;20040;-45
2022/02/10 20:00:43;;;;;;;9.17;2.03;;;;;;;5.25;92.37;102081.25;5048703;28;20048;-48
2022/02/10 20:03:16;;;;;;;14.73;2.25;;;;;;;5.21;91.92;102066.59;5051094;28;20570;-47
2022/02/10 20:05:46;;;;;;;9.57;2.40;;;;;;;5.21;92.06;102063.97;5048579;28;20514;-48
2022/02/10 20:08:16;;;;;;;10.65;2.60;;;;;;;5.18;91.95;102061.44;5050591;28;20056;-47
2022/02/10 20:10:44;;;;;;;6.13;2.22;;;;;;;5.18;92.36;102064.06;5052461;28;20383;-46
2022/02/10 20:13:16;;;;;;;7.50;2.15;;;;;;;5.06;93.46;102061.72;5052470;28;20075;-47
2022/02/10 20:15:46;;;;;;;10.60;2.47;;;;;;;5.12;93.97;102064.19;5051901;28;20049;-48
2022/02/10 20:18:15;;;;;;;10.38;2.67;;;;;;;5.11;94.02;102054.63;5047793;28;20048;-47
2022/02/10 20:20:46;;;;;;;8.02;2.47;;;;;;;5.13;94.65;102055.47;5050464;28;20061;-46
2022/02/10 20:23:14;;;;;;;9.98;2.97;;;;;;;5.10;94.74;102054.66;5052173;28;20511;-48
2022/02/10 20:26:02;;;;;;;10.43;3.00;;;;;;;5.08;95.85;102052.09;5052539;28;20063;-47
2022/02/10 20:28:32;;;;;;;5.35;2.65;;;;;;;4.99;96.03;102053.19;5050925;28;20049;-44
2022/02/10 20:31:02;;;;;;;11.55;3.00;;;;;;;4.97;96.31;102060.16;5048293;28;20445;-46
2022/02/10 20:33:32;;;;;;;8.50;2.80;;;;;;;4.98;96.68;102066.25;5050525;28;20053;-44
2022/02/10 20:36:03;;;;;;;13.02;3.20;;;;;;;4.99;96.40;102067.94;5052179;28;20049;-48
2022/02/10 20:38:34;;;;;;;8.80;2.90;;;;;;;4.94;97.13;102068.06;5048296;28;20488;-46
2022/02/10 20:41:04;;;;;;;12.85;3.13;;;;;;;4.90;97.82;102064.66;5049009;28;20045;-45
2022/02/10 20:43:33;;;;;;;12.23;3.55;;;;;;;4.90;97.23;102069.03;5050466;28;20048;-47
2022/02/10 20:46:06;;;;;;;9.85;2.90;;;;;;;4.90;97.29;102069.03;5048031;28;20057;-45
2022/02/10 20:48:37;;;;;;;;;;;;;;;4.90;97.07;102069.03;5052073;28;20041;-45
2022/02/10 20:51:07;;;;;;;12.32;3.05;;;;;;;4.88;97.85;102070.78;5047539;28;19928;-44
2022/02/10 20:53:38;;;;;;;10.65;3.63;;;;;;;4.86;97.54;102076.03;5047449;28;20053;-49
2022/02/10 20:56:09;;;;;;;8.63;2.90;;;;;;;4.80;97.97;102075.31;5050762;28;20045;-44
2022/02/10 20:58:38;;;;;;;9.63;3.13;;;;;;;4.75;97.65;102083.25;5051951;28;20055;-47
2022/02/10 21:01:11;;;;;;;7.68;2.38;;;;;;;4.73;98.03;102077.19;5051742;28;20060;-46
2022/02/10 21:03:43;;;;;;;13.38;3.10;;;;;;;4.69;98.01;102078.13;5047601;28;20048;-45
2022/02/10 21:06:19;;;;;;;9.77;2.63;;;;;;;4.70;97.73;102066.84;5048383;28;20088;-44
2022/02/10 21:08:54;;;;;;;8.45;2.60;;;;;;;4.76;97.41;102064.09;5051854;28;20044;-44
2022/02/10 21:11:24;;;;;;;12.38;2.78;;;;;;;4.71;98.17;102058.97;5051813;28;20069;-47
2022/02/10 21:13:53;;;;;;;7.88;2.33;;;;;;;4.69;97.92;102070.31;5051732;28;20124;-45
2022/02/10 21:16:21;;;;;;;8.30;2.45;;;;;;;4.70;97.62;102072.91;5054029;28;20049;-46
2022/02/10 21:18:51;;;;;;;8.65;2.88;;;;;;;4.70;97.94;102069.44;5055560;28;20373;-47
2022/02/10 21:21:19;;;;;;;13.50;2.83;;;;;;;4.66;97.87;102060.84;5055743;28;20064;-46
2022/02/10 21:23:53;;;;;;;11.38;3.45;;;;;;;4.59;97.64;102064.44;5055389;28;20053;-47
2022/02/10 21:26:28;;;;;;;10.02;2.65;;;;;;;4.52;97.68;102068.91;5055403;28;20438;-45
2022/02/10 21:29:00;;;;;;;7.75;2.70;;;;;;;4.50;98.23;102059.41;5055758;28;20037;-47
2022/02/10 21:31:28;;;;;;;11.10;2.72;;;;;;;4.46;98.29;102062.97;5053669;28;20051;-48
2022/02/10 21:34:08;;;;;;;11.68;3.00;;;;;;;4.51;98.23;102059.41;5051074;28;20503;-50
2022/02/10 21:39:27;;;;;;;11.73;2.83;;;;;;;4.47;98.74;102055.16;5055258;28;20048;-46
2022/02/10 21:56:22;;;;;;;15.23;3.47;;;;;;;4.37;100.00;102058.81;5054638;28;20523;-45
2022/02/10 22:02:39;;;;;;;11.48;3.65;;;;;;;4.38;100.00;102065.75;5054935;28;20048;-45
2022/02/10 22:10:44;;;;;;;8.18;2.75;;;;;;;4.25;100.00;102054.69;5057981;28;20504;-47
2022/02/10 22:18:49;;;;;;;10.77;2.83;;;;;;;4.22;100.00;102059.97;5056783;28;20116;-45
2022/02/10 22:21:23;;;;;;;13.05;3.10;;;;;;;4.10;100.00;102065.41;5067854;28;20067;-46
2022/02/10 22:23:53;;;;;;;10.80;2.80;;;;;;;4.12;100.00;102067.09;5074053;28;20045;-44
2022/02/10 22:26:24;;;;;;;9.02;2.40;;;;;;;4.08;100.00;102057.63;5054171;28;20395;-43
2022/02/10 22:28:59;;;;;;;9.70;3.33;;;;;;;4.07;100.00;102053.31;5054339;28;20045;-49
2022/02/10 22:31:36;;;;;;;7.18;3.00;;;;;;;4.01;100.00;102059.50;5055016;28;20045;-45
2022/02/10 22:34:14;;;;;;;7.65;2.90;;;;;;;4.01;100.00;102061.25;5049554;28;20063;-49
2022/02/10 22:36:46;;;;;;;11.45;3.75;;;;;;;4.01;100.00;102069.91;5052472;28;20045;-46
2022/02/10 22:39:17;;;;;;;9.30;2.97;;;;;;;3.96;100.00;102063.91;5054197;28;20098;-47
2022/02/10 22:41:46;;;;;;;9.45;2.65;;;;;;;4.00;100.00;102065.56;5066146;28;20060;-49
2022/02/10 22:44:14;;;;;;;7.72;3.00;;;;;;;3.99;100.00;102065.59;5071969;28;20415;-44
2022/02/10 22:46:42;;;;;;;8.68;2.65;;;;;;;3.88;100.00;102066.63;5074155;28;20074;-44
2022/02/10 22:49:11;;;;;;;8.20;2.67;;;;;;;3.92;100.00;102061.41;5073957;28;20137;-50
2022/02/10 22:51:39;;;;;;;9.30;2.25;;;;;;;3.86;100.00;102058.03;5073697;28;20062;-48
2022/02/10 22:54:08;;;;;;;7.88;2.60;;;;;;;3.82;100.00;102063.31;5072565;28;20041;-48
2022/02/10 22:56:38;;;;;;;10.50;2.80;;;;;;;3.82;100.00;102058.97;5070273;28;20537;-45
2022/02/10 22:59:08;;;;;;;8.07;2.33;;;;;;;3.77;100.00;102052.97;5071553;28;20048;-47
2022/02/10 23:01:38;;;;;;;8.43;2.22;;;;;;;3.76;100.00;102060.81;5073631;28;20041;-45
2022/02/10 23:04:07;;;;;;;12.00;2.72;;;;;;;3.70;100.00;102065.22;5073642;28;20044;-44
2022/02/10 23:06:35;;;;;;;6.43;2.13;;;;;;;3.62;100.00;102066.25;5073677;28;20049;-46
2022/02/10 23:09:23;;;;;;;9.40;2.50;;;;;;;3.61;100.00;102059.31;5073804;28;20127;-47
2022/02/10 23:11:54;;;;;;;7.28;2.25;;;;;;;3.54;100.00;102067.25;5073667;28;20048;-48
2022/02/10 23:14:22;;;;;;;7.90;2.03;;;;;;;3.54;100.00;102061.16;5070573;28;20048;-47
2022/02/10 23:16:50;;;;;;;6.55;2.22;;;;;;;3.52;100.00;102068.16;5070033;28;20128;-48
2022/02/10 23:19:20;;;;;;;11.02;2.65;;;;;;;3.48;100.00;102064.72;5073517;28;20676;-45
2022/02/10 23:21:48;;;;;;;15.02;2.92;;;;;;;3.46;100.00;102063.03;5073176;28;20498;-46
2022/02/10 23:24:16;;;;;;;7.45;2.47;;;;;;;3.48;100.00;102067.31;5073219;28;20052;-46
2022/02/10 23:26:44;;;;;;;7.18;2.47;;;;;;;3.41;100.00;102068.31;5073428;28;20045;-45
2022/02/10 23:29:14;;;;;;;8.70;2.72;;;;;;;3.40;100.00;102077.00;5068919;28;20113;-43
2022/02/10 23:31:42;;;;;;;8.60;2.97;;;;;;;3.39;100.00;102070.06;5070160;28;20040;-47
2022/02/10 23:34:10;;;;;;;10.13;2.38;;;;;;;3.31;100.00;102087.53;5072982;28;20080;-45
2022/02/10 23:36:46;;;;;;;8.82;2.70;;;;;;;3.24;100.00;102091.09;5072982;28;20055;-54
2022/02/10 23:39:19;;;;;;;8.65;2.75;;;;;;;3.20;100.00;102085.97;5104943;28;20044;-56
2022/02/10 23:44:34;;;;;;;7.38;2.53;;;;;;;3.13;100.00;102092.09;5072814;28;20401;-45
2022/02/10 23:47:03;;;;;;;;;;;;;;;3.13;100.00;102089.50;5073562;28;20044;-46
2022/02/10 23:49:35;;;;;;;9.43;2.67;;;;;;;3.11;100.00;102099.09;5071601;28;19920;-45
2022/02/10 23:52:07;;;;;;;9.90;2.80;;;;;;;3.07;100.00;102089.59;5069339;28;20523;-44
2022/02/10 23:54:38;;;;;;;9.15;2.50;;;;;;;3.04;100.00;102084.44;5068671;28;20491;-43
2022/02/10 23:57:12;;;;;;;8.88;3.08;;;;;;;3.01;100.00;102074.09;5072867;28;20060;-44
